sensor_id;sensor_type;location;lat;lon;timestamp;temperature;humidity
30174;DHT22;16985;50.814;8.530;2023-05-15T00:02:17;10.70;99.90
30174;DHT22;16985;50.814;8.530;2023-05-15T00:04:43;10.60;99.90
30174;DHT22;16985;50.814;8.530;2023-05-15T00:07:09;10.60;99.90
30174;DHT22;16985;50.814;8.530;2023-05-15T00:09:35;10.50;99.90
30174;DHT22;16985;50.814;8.530;2023-05-15T00:12:01;10.50;99.90
30174;DHT22;16985;50.814;8.530;2023-05-15T00:14:27;10.50;99.90
30174;DHT22;16985;50.814;8.530;2023-05-15T00:16:53;10.50;99.90
30174;DHT22;16985;50.814;8.530;2023-05-15T00:19:19;10.40;99.90
30174;DHT22;16985;50.814;8.530;2023-05-15T00:21:45;10.40;99.90
30174;DHT22;16985;50.814;8.530;2023-05-15T00:24:10;10.40;99.90
30174;DHT22;16985;50.814;8.530;2023-05-15T00:26:36;10.30;99.90
30174;DHT22;16985;50.814;8.530;2023-05-15T00:29:02;10.30;99.90
30174;DHT22;16985;50.814;8.530;2023-05-15T00:31:28;10.30;99.90
30174;DHT22;16985;50.814;8.530;2023-05-15T00:33:54;10.20;99.90
30174;DHT22;16985;50.814;8.530;2023-05-15T00:36:19;10.20;99.90
30174;DHT22;16985;50.814;8.530;2023-05-15T00:38:46;10.20;99.90
30174;DHT22;16985;50.814;8.530;2023-05-15T00:41:13;10.20;99.90
30174;DHT22;16985;50.814;8.530;2023-05-15T00:43:55;10.10;99.90
30174;DHT22;16985;50.814;8.530;2023-05-15T00:46:22;10.00;99.90
30174;DHT22;16985;50.814;8.530;2023-05-15T00:48:49;10.00;99.90
30174;DHT22;16985;50.814;8.530;2023-05-15T00:51:16;10.00;99.90
30174;DHT22;16985;50.814;8.530;2023-05-15T00:53:42;9.90;99.90
30174;DHT22;16985;50.814;8.530;2023-05-15T00:56:10;9.90;99.90
30174;DHT22;16985;50.814;8.530;2023-05-15T00:58:37;9.90;99.90
30174;DHT22;16985;50.814;8.530;2023-05-15T01:01:03;9.80;99.90
30174;DHT22;16985;50.814;8.530;2023-05-15T01:03:29;9.80;99.90
30174;DHT22;16985;50.814;8.530;2023-05-15T01:05:55;9.80;99.90
30174;DHT22;16985;50.814;8.530;2023-05-15T01:08:27;9.70;99.90
30174;DHT22;16985;50.814;8.530;2023-05-15T01:10:57;12.00;99.90
30174;DHT22;16985;50.814;8.530;2023-05-15T01:13:24;9.70;99.90
30174;DHT22;16985;50.814;8.530;2023-05-15T01:16:05;9.70;99.90
30174;DHT22;16985;50.814;8.530;2023-05-15T01:18:31;9.70;99.90
30174;DHT22;16985;50.814;8.530;2023-05-15T01:24:10;9.60;99.90
30174;DHT22;16985;50.814;8.530;2023-05-15T01:30:26;9.50;99.90
30174;DHT22;16985;50.814;8.530;2023-05-15T01:33:14;9.50;99.90
30174;DHT22;16985;50.814;8.530;2023-05-15T01:38:39;9.40;99.90
30174;DHT22;16985;50.814;8.530;2023-05-15T01:43:47;9.40;99.90
30174;DHT22;16985;50.814;8.530;2023-05-15T01:46:21;9.30;99.90
30174;DHT22;16985;50.814;8.530;2023-05-15T01:48:50;9.30;99.90
30174;DHT22;16985;50.814;8.530;2023-05-15T01:51:18;9.30;99.90
30174;DHT22;16985;50.814;8.530;2023-05-15T01:53:45;9.20;99.90
30174;DHT22;16985;50.814;8.530;2023-05-15T01:56:13;9.20;99.90
30174;DHT22;16985;50.814;8.530;2023-05-15T01:58:59;9.20;99.90
30174;DHT22;16985;50.814;8.530;2023-05-15T02:01:26;9.20;99.90
30174;DHT22;16985;50.814;8.530;2023-05-15T02:03:53;9.20;99.90
30174;DHT22;16985;50.814;8.530;2023-05-15T02:06:20;9.10;99.90
30174;DHT22;16985;50.814;8.530;2023-05-15T02:08:47;9.10;99.90
30174;DHT22;16985;50.814;8.530;2023-05-15T02:11:14;9.10;99.90
30174;DHT22;16985;50.814;8.530;2023-05-15T02:13:41;9.00;99.90
30174;DHT22;16985;50.814;8.530;2023-05-15T02:16:07;9.00;99.90
30174;DHT22;16985;50.814;8.530;2023-05-15T02:18:33;9.00;99.90
30174;DHT22;16985;50.814;8.530;2023-05-15T02:20:59;9.00;99.90
30174;DHT22;16985;50.814;8.530;2023-05-15T02:23:28;9.00;99.90
30174;DHT22;16985;50.814;8.530;2023-05-15T02:29:20;9.00;99.90
30174;DHT22;16985;50.814;8.530;2023-05-15T02:34:57;8.90;99.90
30174;DHT22;16985;50.814;8.530;2023-05-15T02:37:30;8.80;99.90
30174;DHT22;16985;50.814;8.530;2023-05-15T02:39:59;8.80;99.90
30174;DHT22;16985;50.814;8.530;2023-05-15T02:42:27;8.70;99.90
30174;DHT22;16985;50.814;8.530;2023-05-15T02:44:54;8.70;99.90
30174;DHT22;16985;50.814;8.530;2023-05-15T02:47:22;8.70;99.90
30174;DHT22;16985;50.814;8.530;2023-05-15T02:49:49;8.70;99.90
30174;DHT22;16985;50.814;8.530;2023-05-15T02:52:16;8.70;99.90
30174;DHT22;16985;50.814;8.530;2023-05-15T02:54:42;8.60;99.90
30174;DHT22;16985;50.814;8.530;2023-05-15T02:57:08;8.60;99.90
30174;DHT22;16985;50.814;8.530;2023-05-15T02:59:34;8.60;99.90
30174;DHT22;16985;50.814;8.530;2023-05-15T03:02:00;8.50;99.90
30174;DHT22;16985;50.814;8.530;2023-05-15T03:04:28;8.50;99.90
30174;DHT22;16985;50.814;8.530;2023-05-15T03:06:54;8.50;99.90
30174;DHT22;16985;50.814;8.530;2023-05-15T03:09:19;8.50;99.90
30174;DHT22;16985;50.814;8.530;2023-05-15T03:11:45;8.50;99.90
30174;DHT22;16985;50.814;8.530;2023-05-15T03:14:11;8.40;99.90
30174;DHT22;16985;50.814;8.530;2023-05-15T03:16:37;8.40;99.90
30174;DHT22;16985;50.814;8.530;2023-05-15T03:19:03;8.30;99.90
30174;DHT22;16985;50.814;8.530;2023-05-15T03:21:29;8.40;99.90
30174;DHT22;16985;50.814;8.530;2023-05-15T03:23:56;8.30;99.90
30174;DHT22;16985;50.814;8.530;2023-05-15T03:26:22;8.30;99.90
30174;DHT22;16985;50.814;8.530;2023-05-15T03:28:47;8.30;99.90
30174;DHT22;16985;50.814;8.530;2023-05-15T03:31:13;8.30;99.90
30174;DHT22;16985;50.814;8.530;2023-05-15T03:33:39;8.20;99.90
30174;DHT22;16985;50.814;8.530;2023-05-15T03:36:05;8.00;99.90
30174;DHT22;16985;50.814;8.530;2023-05-15T03:38:48;8.20;99.90
30174;DHT22;16985;50.814;8.530;2023-05-15T03:41:13;8.20;99.90
30174;DHT22;16985;50.814;8.530;2023-05-15T03:43:39;8.70;99.90
30174;DHT22;16985;50.814;8.530;2023-05-15T03:46:05;8.10;99.90
30174;DHT22;16985;50.814;8.530;2023-05-15T03:48:31;6.90;99.90
30174;DHT22;16985;50.814;8.530;2023-05-15T03:50:57;8.10;99.90
30174;DHT22;16985;50.814;8.530;2023-05-15T03:53:23;8.00;99.90
30174;DHT22;16985;50.814;8.530;2023-05-15T03:55:51;8.00;99.90
30174;DHT22;16985;50.814;8.530;2023-05-15T03:58:18;8.00;99.90
30174;DHT22;16985;50.814;8.530;2023-05-15T04:00:43;8.00;99.90
30174;DHT22;16985;50.814;8.530;2023-05-15T04:03:09;8.00;99.90
30174;DHT22;16985;50.814;8.530;2023-05-15T04:05:35;8.00;99.90
30174;DHT22;16985;50.814;8.530;2023-05-15T04:08:01;8.00;99.90
30174;DHT22;16985;50.814;8.530;2023-05-15T04:10:26;7.90;99.90
30174;DHT22;16985;50.814;8.530;2023-05-15T04:12:53;7.90;99.90
30174;DHT22;16985;50.814;8.530;2023-05-15T04:15:24;7.90;99.90
30174;DHT22;16985;50.814;8.530;2023-05-15T04:17:51;7.90;99.90
30174;DHT22;16985;50.814;8.530;2023-05-15T04:20:20;7.90;99.90
30174;DHT22;16985;50.814;8.530;2023-05-15T04:22:47;7.90;99.90
30174;DHT22;16985;50.814;8.530;2023-05-15T04:25:14;7.90;99.90
30174;DHT22;16985;50.814;8.530;2023-05-15T04:27:55;7.90;99.90
30174;DHT22;16985;50.814;8.530;2023-05-15T04:30:21;7.90;99.90
30174;DHT22;16985;50.814;8.530;2023-05-15T04:32:48;7.90;99.90
30174;DHT22;16985;50.814;8.530;2023-05-15T04:35:14;7.90;99.90
30174;DHT22;16985;50.814;8.530;2023-05-15T04:37:41;7.90;99.90
30174;DHT22;16985;50.814;8.530;2023-05-15T04:40:08;7.90;99.90
30174;DHT22;16985;50.814;8.530;2023-05-15T04:42:35;7.90;99.90
30174;DHT22;16985;50.814;8.530;2023-05-15T04:45:01;8.00;99.90
30174;DHT22;16985;50.814;8.530;2023-05-15T04:47:27;8.00;99.90
30174;DHT22;16985;50.814;8.530;2023-05-15T04:49:53;8.00;99.90
30174;DHT22;16985;50.814;8.530;2023-05-15T04:52:19;8.00;99.90
30174;DHT22;16985;50.814;8.530;2023-05-15T04:54:44;8.10;99.90
30174;DHT22;16985;50.814;8.530;2023-05-15T04:57:12;8.10;99.90
30174;DHT22;16985;50.814;8.530;2023-05-15T04:59:38;8.10;99.90
30174;DHT22;16985;50.814;8.530;2023-05-15T05:02:03;8.10;99.90
30174;DHT22;16985;50.814;8.530;2023-05-15T05:04:29;8.20;99.90
30174;DHT22;16985;50.814;8.530;2023-05-15T05:06:55;8.80;99.90
30174;DHT22;16985;50.814;8.530;2023-05-15T05:09:21;8.20;99.90
30174;DHT22;16985;50.814;8.530;2023-05-15T05:11:47;8.30;99.90
30174;DHT22;16985;50.814;8.530;2023-05-15T05:14:14;8.30;99.90
30174;DHT22;16985;50.814;8.530;2023-05-15T05:16:40;8.30;99.90
30174;DHT22;16985;50.814;8.530;2023-05-15T05:19:07;8.40;99.90
30174;DHT22;16985;50.814;8.530;2023-05-15T05:21:32;8.40;99.90
30174;DHT22;16985;50.814;8.530;2023-05-15T05:23:59;8.40;99.90
30174;DHT22;16985;50.814;8.530;2023-05-15T05:26:25;8.50;99.90
30174;DHT22;16985;50.814;8.530;2023-05-15T05:28:51;8.50;99.90
30174;DHT22;16985;50.814;8.530;2023-05-15T05:31:18;8.50;99.90
30174;DHT22;16985;50.814;8.530;2023-05-15T05:33:44;8.60;99.90
30174;DHT22;16985;50.814;8.530;2023-05-15T05:36:10;8.60;99.90
30174;DHT22;16985;50.814;8.530;2023-05-15T05:38:36;8.60;99.90
30174;DHT22;16985;50.814;8.530;2023-05-15T05:41:02;8.70;99.90
30174;DHT22;16985;50.814;8.530;2023-05-15T05:43:28;8.70;99.90
30174;DHT22;16985;50.814;8.530;2023-05-15T05:45:56;8.80;99.90
30174;DHT22;16985;50.814;8.530;2023-05-15T05:48:22;8.80;99.90
30174;DHT22;16985;50.814;8.530;2023-05-15T05:50:48;8.90;99.90
30174;DHT22;16985;50.814;8.530;2023-05-15T05:53:14;8.90;99.90
30174;DHT22;16985;50.814;8.530;2023-05-15T05:55:39;9.00;99.90
30174;DHT22;16985;50.814;8.530;2023-05-15T05:58:05;9.00;99.90
30174;DHT22;16985;50.814;8.530;2023-05-15T06:00:31;9.10;99.90
30174;DHT22;16985;50.814;8.530;2023-05-15T06:02:58;9.10;99.90
30174;DHT22;16985;50.814;8.530;2023-05-15T06:05:25;9.20;99.90
30174;DHT22;16985;50.814;8.530;2023-05-15T06:07:52;9.20;99.90
30174;DHT22;16985;50.814;8.530;2023-05-15T06:10:18;9.30;99.90
30174;DHT22;16985;50.814;8.530;2023-05-15T06:12:45;9.40;99.90
30174;DHT22;16985;50.814;8.530;2023-05-15T06:15:11;9.40;99.90
30174;DHT22;16985;50.814;8.530;2023-05-15T06:17:38;9.50;99.90
30174;DHT22;16985;50.814;8.530;2023-05-15T06:20:07;9.60;99.90
30174;DHT22;16985;50.814;8.530;2023-05-15T06:22:35;9.70;99.90
30174;DHT22;16985;50.814;8.530;2023-05-15T06:25:02;9.70;99.90
30174;DHT22;16985;50.814;8.530;2023-05-15T06:27:29;9.80;99.90
30174;DHT22;16985;50.814;8.530;2023-05-15T06:29:55;9.90;99.90
30174;DHT22;16985;50.814;8.530;2023-05-15T06:32:21;10.10;99.90
30174;DHT22;16985;50.814;8.530;2023-05-15T06:34:47;10.20;99.90
30174;DHT22;16985;50.814;8.530;2023-05-15T06:37:13;10.30;99.90
30174;DHT22;16985;50.814;8.530;2023-05-15T06:39:38;10.40;99.90
30174;DHT22;16985;50.814;8.530;2023-05-15T06:42:04;10.50;99.90
30174;DHT22;16985;50.814;8.530;2023-05-15T06:44:30;10.60;99.90
30174;DHT22;16985;50.814;8.530;2023-05-15T06:46:57;10.70;99.90
30174;DHT22;16985;50.814;8.530;2023-05-15T06:49:23;10.90;99.90
30174;DHT22;16985;50.814;8.530;2023-05-15T06:51:50;11.10;99.90
30174;DHT22;16985;50.814;8.530;2023-05-15T06:54:17;11.20;99.90
30174;DHT22;16985;50.814;8.530;2023-05-15T06:56:43;11.30;99.90
30174;DHT22;16985;50.814;8.530;2023-05-15T06:59:08;11.50;99.90
30174;DHT22;16985;50.814;8.530;2023-05-15T07:01:34;11.60;99.90
30174;DHT22;16985;50.814;8.530;2023-05-15T07:04:00;11.70;99.90
30174;DHT22;16985;50.814;8.530;2023-05-15T07:06:27;11.90;99.90
30174;DHT22;16985;50.814;8.530;2023-05-15T07:08:53;12.00;99.90
30174;DHT22;16985;50.814;8.530;2023-05-15T07:11:19;12.10;99.90
30174;DHT22;16985;50.814;8.530;2023-05-15T07:13:45;12.30;99.90
30174;DHT22;16985;50.814;8.530;2023-05-15T07:16:11;12.50;99.90
30174;DHT22;16985;50.814;8.530;2023-05-15T07:18:36;12.50;99.90
30174;DHT22;16985;50.814;8.530;2023-05-15T07:21:02;12.60;99.90
30174;DHT22;16985;50.814;8.530;2023-05-15T07:23:28;12.80;99.90
30174;DHT22;16985;50.814;8.530;2023-05-15T07:25:54;12.80;99.90
30174;DHT22;16985;50.814;8.530;2023-05-15T07:28:20;13.00;99.90
30174;DHT22;16985;50.814;8.530;2023-05-15T07:30:46;13.10;99.90
30174;DHT22;16985;50.814;8.530;2023-05-15T07:33:12;13.20;99.90
30174;DHT22;16985;50.814;8.530;2023-05-15T07:35:38;13.30;99.90
30174;DHT22;16985;50.814;8.530;2023-05-15T07:38:03;13.50;99.90
30174;DHT22;16985;50.814;8.530;2023-05-15T07:40:29;13.60;99.90
30174;DHT22;16985;50.814;8.530;2023-05-15T07:42:55;13.70;99.90
30174;DHT22;16985;50.814;8.530;2023-05-15T07:45:21;13.80;99.90
30174;DHT22;16985;50.814;8.530;2023-05-15T07:47:48;14.00;99.90
30174;DHT22;16985;50.814;8.530;2023-05-15T07:50:23;14.10;99.90
30174;DHT22;16985;50.814;8.530;2023-05-15T07:52:48;14.20;99.90
30174;DHT22;16985;50.814;8.530;2023-05-15T07:55:14;14.20;99.90
30174;DHT22;16985;50.814;8.530;2023-05-15T07:57:40;14.40;99.90
30174;DHT22;16985;50.814;8.530;2023-05-15T08:00:09;14.50;99.90
30174;DHT22;16985;50.814;8.530;2023-05-15T08:02:41;14.60;99.90
30174;DHT22;16985;50.814;8.530;2023-05-15T08:05:10;14.70;99.90
30174;DHT22;16985;50.814;8.530;2023-05-15T08:07:36;14.90;99.90
30174;DHT22;16985;50.814;8.530;2023-05-15T08:10:02;15.00;99.90
30174;DHT22;16985;50.814;8.530;2023-05-15T08:12:30;15.10;99.90
30174;DHT22;16985;50.814;8.530;2023-05-15T08:14:56;15.40;99.90
30174;DHT22;16985;50.814;8.530;2023-05-15T08:17:23;15.30;99.90
30174;DHT22;16985;50.814;8.530;2023-05-15T08:19:49;15.40;99.90
30174;DHT22;16985;50.814;8.530;2023-05-15T08:22:15;15.50;99.90
30174;DHT22;16985;50.814;8.530;2023-05-15T08:24:41;15.60;99.90
30174;DHT22;16985;50.814;8.530;2023-05-15T08:27:07;15.70;99.90
30174;DHT22;16985;50.814;8.530;2023-05-15T08:29:37;13.50;99.00
30174;DHT22;16985;50.814;8.530;2023-05-15T08:32:04;15.80;99.40
30174;DHT22;16985;50.814;8.530;2023-05-15T08:34:31;16.00;98.60
30174;DHT22;16985;50.814;8.530;2023-05-15T08:36:57;16.10;96.80
30174;DHT22;16985;50.814;8.530;2023-05-15T08:39:23;16.20;95.00
30174;DHT22;16985;50.814;8.530;2023-05-15T08:44:40;16.40;94.60
30174;DHT22;16985;50.814;8.530;2023-05-15T08:47:06;16.40;94.20
30174;DHT22;16985;50.814;8.530;2023-05-15T08:49:57;16.40;94.00
30174;DHT22;16985;50.814;8.530;2023-05-15T08:52:29;16.40;93.60
30174;DHT22;16985;50.814;8.530;2023-05-15T08:54:55;16.70;93.30
30174;DHT22;16985;50.814;8.530;2023-05-15T08:57:21;16.40;93.20
30174;DHT22;16985;50.814;8.530;2023-05-15T08:59:48;16.40;92.80
30174;DHT22;16985;50.814;8.530;2023-05-15T09:02:14;16.40;92.30
30174;DHT22;16985;50.814;8.530;2023-05-15T09:04:40;16.40;92.20
30174;DHT22;16985;50.814;8.530;2023-05-15T09:07:06;16.30;92.70
30174;DHT22;16985;50.814;8.530;2023-05-15T09:09:34;16.30;93.40
30174;DHT22;16985;50.814;8.530;2023-05-15T09:12:02;16.20;93.80
30174;DHT22;16985;50.814;8.530;2023-05-15T09:14:28;16.30;94.20
30174;DHT22;16985;50.814;8.530;2023-05-15T09:16:54;16.20;94.30
30174;DHT22;16985;50.814;8.530;2023-05-15T09:19:21;16.10;94.80
30174;DHT22;16985;50.814;8.530;2023-05-15T09:21:47;16.10;95.10
30174;DHT22;16985;50.814;8.530;2023-05-15T09:24:21;16.10;95.70
30174;DHT22;16985;50.814;8.530;2023-05-15T09:27:06;16.10;96.10
30174;DHT22;16985;50.814;8.530;2023-05-15T09:29:34;16.00;96.60
30174;DHT22;16985;50.814;8.530;2023-05-15T09:32:12;16.10;97.00
30174;DHT22;16985;50.814;8.530;2023-05-15T09:34:47;16.00;97.10
30174;DHT22;16985;50.814;8.530;2023-05-15T09:37:30;16.00;97.40
30174;DHT22;16985;50.814;8.530;2023-05-15T09:40:07;16.00;97.30
30174;DHT22;16985;50.814;8.530;2023-05-15T09:42:34;16.10;97.50
30174;DHT22;16985;50.814;8.530;2023-05-15T09:45:01;16.00;97.60
30174;DHT22;16985;50.814;8.530;2023-05-15T09:47:27;16.50;97.80
30174;DHT22;16985;50.814;8.530;2023-05-15T09:49:53;16.10;97.10
30174;DHT22;16985;50.814;8.530;2023-05-15T09:52:18;16.10;96.70
30174;DHT22;16985;50.814;8.530;2023-05-15T09:54:45;16.10;96.90
30174;DHT22;16985;50.814;8.530;2023-05-15T09:57:13;16.10;96.80
30174;DHT22;16985;50.814;8.530;2023-05-15T09:59:44;16.10;96.60
30174;DHT22;16985;50.814;8.530;2023-05-15T10:02:25;16.10;96.50
30174;DHT22;16985;50.814;8.530;2023-05-15T10:04:57;14.00;95.70
30174;DHT22;16985;50.814;8.530;2023-05-15T10:07:41;16.20;96.20
30174;DHT22;16985;50.814;8.530;2023-05-15T10:10:07;16.30;96.20
30174;DHT22;16985;50.814;8.530;2023-05-15T10:12:33;16.20;96.00
30174;DHT22;16985;50.814;8.530;2023-05-15T10:15:02;16.10;96.10
30174;DHT22;16985;50.814;8.530;2023-05-15T10:17:30;16.20;95.80
30174;DHT22;16985;50.814;8.530;2023-05-15T10:20:01;16.20;95.70
30174;DHT22;16985;50.814;8.530;2023-05-15T10:22:29;16.20;95.30
30174;DHT22;16985;50.814;8.530;2023-05-15T10:25:07;16.20;95.20
30174;DHT22;16985;50.814;8.530;2023-05-15T10:27:37;16.20;95.20
30174;DHT22;16985;50.814;8.530;2023-05-15T10:30:06;16.20;95.20
30174;DHT22;16985;50.814;8.530;2023-05-15T10:32:34;16.20;95.30
30174;DHT22;16985;50.814;8.530;2023-05-15T10:35:02;16.20;95.20
30174;DHT22;16985;50.814;8.530;2023-05-15T10:37:28;16.30;95.20
30174;DHT22;16985;50.814;8.530;2023-05-15T10:39:56;16.30;94.90
30174;DHT22;16985;50.814;8.530;2023-05-15T10:42:26;16.30;94.90
30174;DHT22;16985;50.814;8.530;2023-05-15T10:44:54;16.30;95.10
30174;DHT22;16985;50.814;8.530;2023-05-15T10:47:25;16.30;95.10
30174;DHT22;16985;50.814;8.530;2023-05-15T10:49:52;16.30;95.30
30174;DHT22;16985;50.814;8.530;2023-05-15T10:52:18;16.40;95.50
30174;DHT22;16985;50.814;8.530;2023-05-15T10:54:45;16.70;96.10
30174;DHT22;16985;50.814;8.530;2023-05-15T10:57:10;15.20;95.60
30174;DHT22;16985;50.814;8.530;2023-05-15T10:59:36;16.50;95.70
30174;DHT22;16985;50.814;8.530;2023-05-15T11:02:25;16.60;95.00
30174;DHT22;16985;50.814;8.530;2023-05-15T11:04:58;16.70;94.30
30174;DHT22;16985;50.814;8.530;2023-05-15T11:07:27;16.60;94.60
30174;DHT22;16985;50.814;8.530;2023-05-15T11:09:54;16.90;94.50
30174;DHT22;16985;50.814;8.530;2023-05-15T11:12:21;17.00;94.30
30174;DHT22;16985;50.814;8.530;2023-05-15T11:17:16;17.00;93.30
30174;DHT22;16985;50.814;8.530;2023-05-15T11:22:16;17.00;92.20
30174;DHT22;16985;50.814;8.530;2023-05-15T11:27:24;16.90;92.70
30174;DHT22;16985;50.814;8.530;2023-05-15T11:32:48;16.80;92.10
30174;DHT22;16985;50.814;8.530;2023-05-15T11:38:10;16.80;92.00
30174;DHT22;16985;50.814;8.530;2023-05-15T11:41:16;16.80;92.00
30174;DHT22;16985;50.814;8.530;2023-05-15T11:43:43;16.80;92.20
30174;DHT22;16985;50.814;8.530;2023-05-15T11:46:10;16.80;92.10
30174;DHT22;16985;50.814;8.530;2023-05-15T11:48:57;16.80;92.30
30174;DHT22;16985;50.814;8.530;2023-05-15T11:51:25;16.80;92.30
30174;DHT22;16985;50.814;8.530;2023-05-15T11:53:54;16.90;91.90
30174;DHT22;16985;50.814;8.530;2023-05-15T11:56:23;16.90;91.60
30174;DHT22;16985;50.814;8.530;2023-05-15T11:58:51;17.00;91.50
30174;DHT22;16985;50.814;8.530;2023-05-15T12:01:19;17.00;91.00
30174;DHT22;16985;50.814;8.530;2023-05-15T12:03:48;18.40;91.50
30174;DHT22;16985;50.814;8.530;2023-05-15T12:06:15;17.20;91.30
30174;DHT22;16985;50.814;8.530;2023-05-15T12:08:41;17.40;91.40
30174;DHT22;16985;50.814;8.530;2023-05-15T12:11:07;17.60;91.30
30174;DHT22;16985;50.814;8.530;2023-05-15T12:13:34;17.80;90.90
30174;DHT22;16985;50.814;8.530;2023-05-15T12:16:01;18.00;90.20
30174;DHT22;16985;50.814;8.530;2023-05-15T12:18:31;18.10;89.10
30174;DHT22;16985;50.814;8.530;2023-05-15T12:20:57;18.20;86.90
30174;DHT22;16985;50.814;8.530;2023-05-15T12:23:25;18.30;86.60
30174;DHT22;16985;50.814;8.530;2023-05-15T12:25:54;18.30;83.60
30174;DHT22;16985;50.814;8.530;2023-05-15T12:28:23;18.20;81.50
30174;DHT22;16985;50.814;8.530;2023-05-15T12:30:50;18.30;80.50
30174;DHT22;16985;50.814;8.530;2023-05-15T12:33:16;18.20;80.30
30174;DHT22;16985;50.814;8.530;2023-05-15T12:35:44;18.10;80.00
30174;DHT22;16985;50.814;8.530;2023-05-15T12:38:16;18.10;80.20
30174;DHT22;16985;50.814;8.530;2023-05-15T12:40:43;17.90;79.30
30174;DHT22;16985;50.814;8.530;2023-05-15T12:43:16;17.90;79.20
30174;DHT22;16985;50.814;8.530;2023-05-15T12:45:42;17.80;79.00
30174;DHT22;16985;50.814;8.530;2023-05-15T12:48:13;17.80;78.80
30174;DHT22;16985;50.814;8.530;2023-05-15T12:50:39;17.90;79.40
30174;DHT22;16985;50.814;8.530;2023-05-15T12:53:05;17.90;79.80
30174;DHT22;16985;50.814;8.530;2023-05-15T12:55:32;18.00;79.20
30174;DHT22;16985;50.814;8.530;2023-05-15T12:58:03;18.10;79.80
30174;DHT22;16985;50.814;8.530;2023-05-15T13:00:34;18.30;80.40
30174;DHT22;16985;50.814;8.530;2023-05-15T13:03:01;18.40;80.20
30174;DHT22;16985;50.814;8.530;2023-05-15T13:05:30;18.60;79.60
30174;DHT22;16985;50.814;8.530;2023-05-15T13:07:58;18.80;78.40
30174;DHT22;16985;50.814;8.530;2023-05-15T13:10:25;19.00;77.40
30174;DHT22;16985;50.814;8.530;2023-05-15T13:12:55;19.10;75.80
30174;DHT22;16985;50.814;8.530;2023-05-15T13:18:02;19.30;73.70
30174;DHT22;16985;50.814;8.530;2023-05-15T13:20:34;19.30;72.90
30174;DHT22;16985;50.814;8.530;2023-05-15T13:23:02;19.20;73.50
30174;DHT22;16985;50.814;8.530;2023-05-15T13:25:28;19.20;74.00
30174;DHT22;16985;50.814;8.530;2023-05-15T13:27:57;19.20;73.30
30174;DHT22;16985;50.814;8.530;2023-05-15T13:30:33;19.20;73.60
30174;DHT22;16985;50.814;8.530;2023-05-15T13:33:00;19.10;73.40
30174;DHT22;16985;50.814;8.530;2023-05-15T13:35:26;19.10;73.50
30174;DHT22;16985;50.814;8.530;2023-05-15T13:37:52;19.00;72.60
30174;DHT22;16985;50.814;8.530;2023-05-15T13:40:18;19.00;73.30
30174;DHT22;16985;50.814;8.530;2023-05-15T13:42:44;18.90;72.80
30174;DHT22;16985;50.814;8.530;2023-05-15T13:45:12;18.80;71.80
30174;DHT22;16985;50.814;8.530;2023-05-15T13:47:39;18.70;71.90
30174;DHT22;16985;50.814;8.530;2023-05-15T13:50:12;18.60;71.70
30174;DHT22;16985;50.814;8.530;2023-05-15T13:52:40;18.50;71.70
30174;DHT22;16985;50.814;8.530;2023-05-15T13:55:07;18.50;72.90
30174;DHT22;16985;50.814;8.530;2023-05-15T13:57:35;18.40;72.70
30174;DHT22;16985;50.814;8.530;2023-05-15T14:00:06;18.30;73.10
30174;DHT22;16985;50.814;8.530;2023-05-15T14:02:35;18.10;73.30
30174;DHT22;16985;50.814;8.530;2023-05-15T14:05:00;18.00;73.80
30174;DHT22;16985;50.814;8.530;2023-05-15T14:07:26;17.90;74.70
30174;DHT22;16985;50.814;8.530;2023-05-15T14:09:52;17.70;75.20
30174;DHT22;16985;50.814;8.530;2023-05-15T14:12:18;17.60;76.30
30174;DHT22;16985;50.814;8.530;2023-05-15T14:14:44;17.60;76.40
30174;DHT22;16985;50.814;8.530;2023-05-15T14:17:11;17.50;76.80
30174;DHT22;16985;50.814;8.530;2023-05-15T14:19:37;17.40;77.20
30174;DHT22;16985;50.814;8.530;2023-05-15T14:22:06;17.30;77.20
30174;DHT22;16985;50.814;8.530;2023-05-15T14:24:32;17.20;77.50
30174;DHT22;16985;50.814;8.530;2023-05-15T14:26:58;17.10;77.80
30174;DHT22;16985;50.814;8.530;2023-05-15T14:29:24;17.00;77.70
30174;DHT22;16985;50.814;8.530;2023-05-15T14:31:50;17.00;77.90
30174;DHT22;16985;50.814;8.530;2023-05-15T14:34:16;16.90;77.90
30174;DHT22;16985;50.814;8.530;2023-05-15T14:36:43;16.90;78.00
30174;DHT22;16985;50.814;8.530;2023-05-15T14:39:12;16.80;78.40
30174;DHT22;16985;50.814;8.530;2023-05-15T14:41:38;16.90;79.00
30174;DHT22;16985;50.814;8.530;2023-05-15T14:44:04;16.90;79.40
30174;DHT22;16985;50.814;8.530;2023-05-15T14:46:30;16.90;79.80
30174;DHT22;16985;50.814;8.530;2023-05-15T14:48:56;16.90;80.10
30174;DHT22;16985;50.814;8.530;2023-05-15T14:51:21;17.00;80.30
30174;DHT22;16985;50.814;8.530;2023-05-15T14:53:47;17.10;80.30
30174;DHT22;16985;50.814;8.530;2023-05-15T14:56:13;16.70;79.40
30174;DHT22;16985;50.814;8.530;2023-05-15T14:58:39;17.20;78.60
30174;DHT22;16985;50.814;8.530;2023-05-15T15:01:05;17.20;78.50
30174;DHT22;16985;50.814;8.530;2023-05-15T15:03:46;17.10;78.60
30174;DHT22;16985;50.814;8.530;2023-05-15T15:06:12;17.20;78.80
30174;DHT22;16985;50.814;8.530;2023-05-15T15:08:38;18.40;79.50
30174;DHT22;16985;50.814;8.530;2023-05-15T15:11:03;17.10;78.80
30174;DHT22;16985;50.814;8.530;2023-05-15T15:13:30;17.10;78.60
30174;DHT22;16985;50.814;8.530;2023-05-15T15:15:56;17.10;79.00
30174;DHT22;16985;50.814;8.530;2023-05-15T15:18:22;17.10;79.40
30174;DHT22;16985;50.814;8.530;2023-05-15T15:20:48;17.00;79.50
30174;DHT22;16985;50.814;8.530;2023-05-15T15:23:14;17.00;79.40
30174;DHT22;16985;50.814;8.530;2023-05-15T15:25:40;17.00;79.20
30174;DHT22;16985;50.814;8.530;2023-05-15T15:28:06;16.90;79.00
30174;DHT22;16985;50.814;8.530;2023-05-15T15:30:31;17.00;78.70
30174;DHT22;16985;50.814;8.530;2023-05-15T15:32:58;16.80;77.80
30174;DHT22;16985;50.814;8.530;2023-05-15T15:35:24;16.70;77.60
30174;DHT22;16985;50.814;8.530;2023-05-15T15:37:50;16.70;77.60
30174;DHT22;16985;50.814;8.530;2023-05-15T15:40:16;16.60;77.80
30174;DHT22;16985;50.814;8.530;2023-05-15T15:42:42;16.60;77.90
30174;DHT22;16985;50.814;8.530;2023-05-15T15:45:08;16.60;78.20
30174;DHT22;16985;50.814;8.530;2023-05-15T15:47:34;16.50;78.50
30174;DHT22;16985;50.814;8.530;2023-05-15T15:50:00;16.50;78.70
30174;DHT22;16985;50.814;8.530;2023-05-15T15:52:26;16.40;79.20
30174;DHT22;16985;50.814;8.530;2023-05-15T15:54:52;16.40;79.40
30174;DHT22;16985;50.814;8.530;2023-05-15T15:57:19;16.40;79.60
30174;DHT22;16985;50.814;8.530;2023-05-15T15:59:46;16.30;80.10
30174;DHT22;16985;50.814;8.530;2023-05-15T16:02:12;16.30;80.40
30174;DHT22;16985;50.814;8.530;2023-05-15T16:04:39;16.20;80.70
30174;DHT22;16985;50.814;8.530;2023-05-15T16:07:06;16.20;81.30
30174;DHT22;16985;50.814;8.530;2023-05-15T16:09:46;16.10;81.50
30174;DHT22;16985;50.814;8.530;2023-05-15T16:12:12;16.10;82.00
30174;DHT22;16985;50.814;8.530;2023-05-15T16:14:38;16.10;82.20
30174;DHT22;16985;50.814;8.530;2023-05-15T16:17:04;16.00;82.50